createdAt,value
2018-05-17T00:02:14.808Z,99.90
2018-05-17T00:04:42.528Z,99.90
2018-05-17T00:07:10.231Z,99.90
2018-05-17T00:09:37.698Z,99.90
2018-05-17T00:12:05.163Z,99.90
2018-05-17T00:14:32.917Z,99.90
2018-05-17T00:17:00.362Z,99.90
2018-05-17T00:19:27.825Z,99.90
2018-05-17T00:21:55.287Z,99.90
2018-05-17T00:24:22.744Z,99.90
2018-05-17T00:26:50.655Z,99.90
2018-05-17T00:29:18.525Z,99.90
2018-05-17T00:31:48.405Z,99.90
2018-05-17T00:34:17.906Z,99.90
2018-05-17T00:36:46.731Z,99.90
2018-05-17T00:39:14.181Z,99.90
2018-05-17T00:41:41.641Z,99.90
2018-05-17T00:44:09.095Z,99.90
2018-05-17T00:46:37.352Z,99.90
2018-05-17T00:49:04.817Z,99.90
2018-05-17T00:51:32.270Z,99.90
2018-05-17T00:53:59.756Z,99.90
2018-05-17T00:56:27.213Z,99.90
2018-05-17T00:58:56.837Z,99.90
2018-05-17T01:01:25.773Z,99.90
2018-05-17T01:03:53.800Z,99.90
2018-05-17T01:06:22.028Z,99.90
2018-05-17T01:08:49.484Z,99.90
2018-05-17T01:11:17.370Z,99.90
2018-05-17T01:13:44.825Z,99.90
2018-05-17T01:16:12.272Z,99.90
2018-05-17T01:18:39.747Z,99.90
2018-05-17T01:21:07.443Z,99.90
2018-05-17T01:23:34.899Z,99.90
2018-05-17T01:26:02.381Z,99.90
2018-05-17T01:28:30.277Z,99.90
2018-05-17T01:30:57.755Z,99.90
2018-05-17T01:33:25.212Z,99.90
2018-05-17T01:35:54.004Z,99.90
2018-05-17T01:38:27.181Z,99.90
2018-05-17T01:40:55.296Z,99.90
2018-05-17T01:43:22.768Z,99.90
2018-05-17T01:45:50.234Z,99.90
2018-05-17T01:48:17.807Z,99.90
2018-05-17T01:50:45.901Z,99.90
2018-05-17T01:53:13.612Z,99.90
2018-05-17T01:55:41.494Z,99.90
2018-05-17T01:58:08.976Z,99.90
2018-05-17T02:00:36.431Z,99.90
2018-05-17T02:03:06.441Z,99.90
2018-05-17T02:05:34.465Z,99.90
2018-05-17T02:08:02.354Z,99.90
2018-05-17T02:10:29.820Z,99.90
2018-05-17T02:12:57.282Z,99.90
2018-05-17T02:15:24.791Z,99.90
2018-05-17T02:17:53.023Z,99.90
2018-05-17T02:20:21.738Z,99.90
2018-05-17T02:22:52.104Z,99.90
2018-05-17T02:25:19.551Z,99.90
2018-05-17T02:27:47.416Z,99.90
2018-05-17T02:30:14.898Z,99.90
2018-05-17T02:32:42.927Z,99.90
2018-05-17T02:35:11.135Z,99.90
2018-05-17T02:37:38.605Z,99.90
2018-05-17T02:40:06.056Z,99.90
2018-05-17T02:42:33.519Z,99.90
2018-05-17T02:45:01.543Z,99.90
2018-05-17T02:47:29.919Z,99.90
2018-05-17T02:49:58.133Z,99.90
2018-05-17T02:52:25.596Z,99.90
2018-05-17T02:54:53.313Z,99.90
2018-05-17T02:57:21.564Z,99.90
2018-05-17T02:59:49.023Z,99.90
2018-05-17T03:02:16.489Z,99.90
2018-05-17T03:04:44.805Z,99.90
2018-05-17T03:07:12.266Z,99.90
2018-05-17T03:09:40.289Z,99.90
2018-05-17T03:12:07.744Z,99.90
2018-05-17T03:14:35.639Z,99.90
2018-05-17T03:17:03.864Z,99.90
2018-05-17T03:19:31.327Z,99.90
2018-05-17T03:21:58.790Z,99.90
2018-05-17T03:24:26.243Z,99.90
2018-05-17T03:26:54.108Z,99.90
2018-05-17T03:29:21.590Z,99.90
2018-05-17T03:31:49.042Z,99.90
2018-05-17T03:34:16.507Z,99.90
2018-05-17T03:36:45.013Z,99.90
2018-05-17T03:39:12.467Z,99.90
2018-05-17T03:41:39.948Z,99.90
2018-05-17T03:44:07.420Z,99.90
2018-05-17T03:46:37.292Z,99.90
2018-05-17T03:49:04.761Z,99.90
2018-05-17T03:51:34.080Z,99.90
2018-05-17T03:54:01.532Z,99.90
2018-05-17T03:56:29.530Z,99.90
2018-05-17T03:58:56.999Z,99.90
2018-05-17T04:01:36.915Z,99.90
2018-05-17T04:04:17.136Z,99.90
2018-05-17T04:06:45.363Z,99.90
2018-05-17T04:09:12.827Z,99.90
2018-05-17T04:11:40.972Z,99.90
2018-05-17T04:14:08.430Z,99.90
2018-05-17T04:16:36.431Z,99.90
2018-05-17T04:19:03.896Z,99.90
2018-05-17T04:21:31.348Z,99.90
2018-05-17T04:23:59.240Z,99.90
2018-05-17T04:26:27.728Z,99.90
2018-05-17T04:28:56.092Z,99.90
2018-05-17T04:31:23.548Z,99.90
2018-05-17T04:33:51.009Z,99.90
2018-05-17T04:36:18.468Z,99.90
2018-05-17T04:38:46.693Z,99.90
2018-05-17T04:41:14.153Z,99.90
2018-05-17T04:43:41.628Z,99.90
2018-05-17T04:46:09.093Z,99.90
2018-05-17T04:48:36.555Z,99.90
2018-05-17T04:51:04.021Z,99.90
2018-05-17T04:53:31.479Z,99.90
2018-05-17T04:55:59.160Z,99.90
2018-05-17T04:58:27.375Z,99.90
2018-05-17T05:00:54.831Z,99.90
2018-05-17T05:03:22.848Z,99.90
2018-05-17T05:05:51.076Z,99.90
2018-05-17T05:08:18.537Z,99.90
2018-05-17T05:10:45.999Z,99.90
2018-05-17T05:13:18.791Z,99.90
2018-05-17T05:15:46.962Z,99.90
2018-05-17T05:18:14.423Z,99.90
2018-05-17T05:20:42.584Z,99.90
2018-05-17T05:23:10.045Z,99.90
2018-05-17T05:25:37.940Z,99.90
2018-05-17T05:28:05.426Z,99.90
2018-05-17T05:30:33.640Z,99.90
2018-05-17T05:33:13.624Z,99.90
2018-05-17T05:35:41.084Z,99.90
2018-05-17T05:38:08.541Z,99.90
2018-05-17T05:40:36.948Z,99.90
2018-05-17T05:43:04.400Z,99.90
2018-05-17T05:45:31.882Z,99.90
2018-05-17T05:47:59.752Z,99.90
2018-05-17T05:50:30.688Z,99.90
2018-05-17T05:52:58.732Z,99.90
2018-05-17T05:55:26.624Z,99.90
2018-05-17T05:57:54.098Z,99.90
2018-05-17T06:00:21.564Z,99.90
2018-05-17T06:02:49.017Z,99.90
2018-05-17T06:05:17.637Z,99.90
2018-05-17T06:07:46.266Z,99.90
2018-05-17T06:10:14.176Z,99.90
2018-05-17T06:12:41.654Z,99.90
2018-05-17T06:15:09.894Z,99.90
2018-05-17T06:17:37.353Z,99.90
2018-05-17T06:20:04.813Z,99.90
2018-05-17T06:22:32.701Z,99.90
2018-05-17T06:25:00.149Z,99.90
2018-05-17T06:27:28.417Z,99.90
2018-05-17T06:29:55.876Z,99.90
2018-05-17T06:32:23.336Z,99.90
2018-05-17T06:34:51.613Z,99.90
2018-05-17T06:37:19.071Z,99.90
2018-05-17T06:39:46.536Z,99.90
2018-05-17T06:42:14.020Z,99.90
2018-05-17T06:44:42.233Z,99.90
2018-05-17T06:47:09.687Z,99.90
2018-05-17T06:49:37.557Z,99.90
2018-05-17T06:52:05.028Z,99.90
2018-05-17T06:54:32.488Z,99.90
2018-05-17T06:56:59.953Z,99.90
2018-05-17T07:02:10.129Z,99.90
2018-05-17T07:04:37.600Z,99.90
2018-05-17T07:07:05.952Z,99.90
2018-05-17T07:09:33.405Z,99.90
2018-05-17T07:12:00.892Z,99.90
2018-05-17T07:14:29.124Z,99.90
2018-05-17T07:16:56.584Z,99.90
2018-05-17T07:19:24.082Z,99.90
2018-05-17T07:21:52.344Z,99.90
2018-05-17T07:24:20.416Z,99.90
2018-05-17T07:26:48.337Z,99.90
2018-05-17T07:29:15.794Z,99.90
2018-05-17T07:31:44.434Z,99.90
2018-05-17T07:34:12.169Z,99.90
2018-05-17T07:36:39.662Z,99.90
2018-05-17T07:39:07.993Z,99.90
2018-05-17T07:41:35.817Z,99.90
2018-05-17T07:44:04.050Z,99.90
2018-05-17T07:46:31.524Z,99.90
2018-05-17T07:48:59.609Z,99.90
2018-05-17T07:51:27.900Z,99.90
2018-05-17T07:53:55.911Z,99.90
2018-05-17T07:56:26.224Z,99.90
2018-05-17T07:58:54.112Z,99.90
2018-05-17T08:01:22.131Z,99.90
2018-05-17T08:03:51.084Z,99.90
2018-05-17T08:06:18.555Z,99.90
2018-05-17T08:08:47.137Z,99.90
2018-05-17T08:11:15.089Z,99.90
2018-05-17T08:13:42.528Z,99.90
2018-05-17T08:16:10.369Z,99.90
2018-05-17T08:18:37.832Z,99.90
2018-05-17T08:21:05.284Z,99.90
2018-05-17T08:23:32.748Z,99.90
2018-05-17T08:26:00.201Z,99.90
2018-05-17T08:28:27.684Z,99.90
2018-05-17T08:30:55.270Z,99.90
2018-05-17T08:33:23.143Z,99.90
2018-05-17T08:35:51.361Z,99.90
2018-05-17T08:38:18.839Z,99.90
2018-05-17T08:40:46.628Z,99.90
2018-05-17T08:43:14.507Z,99.90
2018-05-17T08:45:42.826Z,99.90
2018-05-17T08:48:10.204Z,99.90
2018-05-17T08:50:37.663Z,99.90
2018-05-17T08:53:05.549Z,99.90
2018-05-17T08:55:33.006Z,99.90
2018-05-17T08:58:00.458Z,99.90
2018-05-17T09:00:27.920Z,99.90
2018-05-17T09:02:55.381Z,99.90
2018-05-17T09:05:23.549Z,99.90
2018-05-17T09:07:51.807Z,99.90
2018-05-17T09:10:19.292Z,99.90
2018-05-17T09:12:46.740Z,99.90
2018-05-17T09:15:14.192Z,99.90
2018-05-17T09:17:41.652Z,99.90
2018-05-17T09:20:09.201Z,99.90
2018-05-17T09:22:36.581Z,99.90
2018-05-17T09:25:05.065Z,99.90
2018-05-17T09:27:33.787Z,99.90
2018-05-17T09:30:01.482Z,99.90
2018-05-17T09:32:28.948Z,99.90
2018-05-17T09:34:56.422Z,99.90
2018-05-17T09:37:23.869Z,99.90
2018-05-17T09:39:51.320Z,99.90
2018-05-17T09:42:18.775Z,99.90
2018-05-17T09:44:46.228Z,99.90
2018-05-17T09:47:14.103Z,99.90
2018-05-17T09:49:41.553Z,99.90
2018-05-17T09:52:09.581Z,99.90
2018-05-17T09:54:37.028Z,99.90
2018-05-17T09:57:04.755Z,99.90
2018-05-17T09:59:32.547Z,99.90
2018-05-17T10:02:01.192Z,99.90
2018-05-17T10:04:29.997Z,99.90
2018-05-17T10:06:57.458Z,99.90
2018-05-17T10:09:25.059Z,99.90
2018-05-17T10:11:52.525Z,99.90
2018-05-17T10:14:20.054Z,99.90
2018-05-17T10:16:48.328Z,99.90
2018-05-17T10:19:16.811Z,99.90
2018-05-17T10:21:45.440Z,99.90
2018-05-17T10:24:14.014Z,99.90
2018-05-17T10:26:41.641Z,99.90
2018-05-17T10:29:09.931Z,99.90
2018-05-17T10:31:37.477Z,99.90
2018-05-17T10:34:05.993Z,99.90
2018-05-17T10:36:33.609Z,99.90
2018-05-17T10:39:02.028Z,99.90
2018-05-17T10:41:30.000Z,99.90
2018-05-17T10:43:58.047Z,99.90
2018-05-17T10:46:25.789Z,99.90
2018-05-17T10:48:54.044Z,99.90
2018-05-17T10:51:22.116Z,99.90
2018-05-17T10:53:49.569Z,99.90
2018-05-17T10:56:17.143Z,99.30
2018-05-17T10:58:45.820Z,98.10
2018-05-17T11:01:13.282Z,98.10
2018-05-17T11:03:41.286Z,96.80
2018-05-17T11:06:08.813Z,95.00
2018-05-17T11:08:36.293Z,92.90
2018-05-17T11:11:04.157Z,91.90
2018-05-17T11:13:33.166Z,91.50
2018-05-17T11:16:00.674Z,91.30
2018-05-17T11:18:28.530Z,91.30
2018-05-17T11:20:56.151Z,92.70
2018-05-17T11:23:23.803Z,93.00
2018-05-17T11:25:52.090Z,92.60
2018-05-17T11:28:20.407Z,91.80
2018-05-17T11:30:47.947Z,91.90
2018-05-17T11:33:15.996Z,92.10
2018-05-17T11:35:43.695Z,92.30
2018-05-17T11:38:11.217Z,90.60
2018-05-17T11:40:39.088Z,91.70
2018-05-17T11:43:06.569Z,91.20
2018-05-17T11:45:34.408Z,90.20
2018-05-17T11:48:01.904Z,90.30
2018-05-17T11:50:29.432Z,89.40
2018-05-17T11:52:56.817Z,88.60
2018-05-17T11:55:24.264Z,87.00
2018-05-17T11:57:51.833Z,90.10
2018-05-17T12:00:19.389Z,88.40
2018-05-17T12:02:53.511Z,90.80
2018-05-17T12:05:20.977Z,88.60
2018-05-17T12:07:48.628Z,89.90
2018-05-17T12:10:16.083Z,88.60
2018-05-17T12:12:45.043Z,91.30
2018-05-17T12:15:12.540Z,90.50
2018-05-17T12:17:39.997Z,88.10
2018-05-17T12:20:07.482Z,88.80
2018-05-17T12:22:35.724Z,87.00
2018-05-17T12:25:03.168Z,86.90
2018-05-17T12:27:31.203Z,88.00
2018-05-17T12:29:58.846Z,86.50
2018-05-17T12:32:27.090Z,89.70
2018-05-17T12:34:54.621Z,89.70
2018-05-17T12:37:22.104Z,87.40
2018-05-17T12:39:49.551Z,86.60
2018-05-17T12:42:17.033Z,87.00
2018-05-17T12:44:44.497Z,86.20
2018-05-17T12:47:12.736Z,85.70
2018-05-17T12:49:40.215Z,85.60
2018-05-17T12:52:07.671Z,87.30
2018-05-17T12:54:35.585Z,84.70
2018-05-17T12:57:03.046Z,86.20
2018-05-17T12:59:30.529Z,84.80
2018-05-17T13:01:57.986Z,83.10
2018-05-17T13:04:25.452Z,84.70
2018-05-17T13:06:53.370Z,82.90
2018-05-17T13:09:20.812Z,82.90
2018-05-17T13:11:49.048Z,81.30
2018-05-17T13:14:16.506Z,81.20
2018-05-17T13:16:43.972Z,80.90
2018-05-17T13:19:11.530Z,80.60
2018-05-17T13:21:39.089Z,82.60
2018-05-17T13:24:06.634Z,80.00
2018-05-17T13:26:34.543Z,80.60
2018-05-17T13:29:02.076Z,81.10
2018-05-17T13:31:29.647Z,79.50
2018-05-17T13:33:57.504Z,78.50
2018-05-17T13:36:25.275Z,80.80
2018-05-17T13:38:54.035Z,79.20
2018-05-17T13:41:23.227Z,81.00
2018-05-17T13:43:51.208Z,79.20
2018-05-17T13:46:18.688Z,79.30
2018-05-17T13:48:46.155Z,78.00
2018-05-17T13:51:13.625Z,77.00
2018-05-17T13:53:42.039Z,76.10
2018-05-17T13:56:09.573Z,75.90
2018-05-17T13:58:38.758Z,72.10
2018-05-17T14:01:06.740Z,72.10
2018-05-17T14:03:34.972Z,72.90
2018-05-17T14:06:02.453Z,72.90
2018-05-17T14:08:30.631Z,73.20
2018-05-17T14:10:58.090Z,74.10
2018-05-17T14:13:25.531Z,72.60
2018-05-17T14:15:53.273Z,70.70
2018-05-17T14:18:21.626Z,71.40
2018-05-17T14:20:49.082Z,72.20
2018-05-17T14:23:16.593Z,71.00
2018-05-17T14:25:44.955Z,68.20
2018-05-17T14:28:12.416Z,68.10
2018-05-17T14:30:39.886Z,70.40
2018-05-17T14:33:07.477Z,70.70
2018-05-17T14:35:34.927Z,70.20
2018-05-17T14:38:02.388Z,68.40
2018-05-17T14:40:29.902Z,69.00
2018-05-17T14:42:57.676Z,68.70
2018-05-17T14:45:25.152Z,68.50
2018-05-17T14:47:53.412Z,66.20
2018-05-17T14:50:21.569Z,66.10
2018-05-17T14:52:49.136Z,64.90
2018-05-17T14:55:17.433Z,62.40
2018-05-17T14:57:44.867Z,62.40
2018-05-17T15:00:12.849Z,63.30
2018-05-17T15:02:40.741Z,62.20
2018-05-17T15:05:08.972Z,62.10
2018-05-17T15:07:36.428Z,62.10
2018-05-17T15:10:05.835Z,63.90
2018-05-17T15:12:33.287Z,64.00
2018-05-17T15:15:00.751Z,64.40
2018-05-17T15:17:28.222Z,65.10
2018-05-17T15:19:55.673Z,66.00
2018-05-17T15:22:23.128Z,66.50
2018-05-17T15:24:50.591Z,66.00
2018-05-17T15:27:18.153Z,64.40
2018-05-17T15:29:47.451Z,63.90
2018-05-17T15:32:16.283Z,64.20
2018-05-17T15:34:45.287Z,63.90
2018-05-17T15:37:12.851Z,64.30
2018-05-17T15:39:40.336Z,64.30
2018-05-17T15:42:07.812Z,62.70
2018-05-17T15:44:35.359Z,64.50
2018-05-17T15:47:02.835Z,64.20
2018-05-17T15:49:31.056Z,63.80
2018-05-17T15:51:58.513Z,63.00
2018-05-17T15:54:26.012Z,62.50
2018-05-17T15:56:53.459Z,62.80
2018-05-17T15:59:20.921Z,62.80
2018-05-17T16:01:48.384Z,63.10
2018-05-17T16:04:15.849Z,64.20
2018-05-17T16:06:43.391Z,63.30
2018-05-17T16:09:12.359Z,64.80
2018-05-17T16:11:39.848Z,64.90
2018-05-17T16:14:07.312Z,63.70
2018-05-17T16:16:34.827Z,64.90
2018-05-17T16:19:02.292Z,63.90
2018-05-17T16:21:29.759Z,64.10
2018-05-17T16:23:57.211Z,64.00
2018-05-17T16:26:24.684Z,64.10
2018-05-17T16:28:52.149Z,64.20
2018-05-17T16:31:20.200Z,64.10
2018-05-17T16:33:47.655Z,64.00
2018-05-17T16:36:15.111Z,64.90
2018-05-17T16:38:42.584Z,65.50
2018-05-17T16:41:10.049Z,65.00
2018-05-17T16:43:38.180Z,65.00
2018-05-17T16:46:05.650Z,65.10
2018-05-17T16:48:33.122Z,65.50
2018-05-17T16:51:00.679Z,64.80
2018-05-17T16:53:28.238Z,65.20
2018-05-17T16:55:55.800Z,64.80
2018-05-17T16:58:23.263Z,66.20
2018-05-17T17:00:50.748Z,67.60
2018-05-17T17:03:18.973Z,68.40
2018-05-17T17:05:46.933Z,68.50
2018-05-17T17:08:15.125Z,69.90
2018-05-17T17:10:42.592Z,68.50
2018-05-17T17:13:10.255Z,68.70
2018-05-17T17:15:37.811Z,68.30
2018-05-17T17:18:05.291Z,68.40
2018-05-17T17:20:32.869Z,67.60
2018-05-17T17:23:01.118Z,68.70
2018-05-17T17:25:28.660Z,68.60
2018-05-17T17:27:56.219Z,70.00
2018-05-17T17:30:23.794Z,71.60
2018-05-17T17:32:51.235Z,73.50
2018-05-17T17:35:18.907Z,74.80
2018-05-17T17:37:46.364Z,75.90
2018-05-17T17:40:13.824Z,76.80
2018-05-17T17:42:41.668Z,78.50
2018-05-17T17:45:09.128Z,78.80
2018-05-17T17:47:36.581Z,79.00
2018-05-17T17:50:04.812Z,78.90
2018-05-17T17:52:33.037Z,80.10
2018-05-17T17:55:00.496Z,80.10
2018-05-17T17:57:27.952Z,79.00
2018-05-17T17:59:55.685Z,79.90
2018-05-17T18:02:23.136Z,80.50
2018-05-17T18:04:51.426Z,80.00
2018-05-17T18:07:19.984Z,80.70
2018-05-17T18:09:48.048Z,81.00
2018-05-17T18:12:17.459Z,83.10
2018-05-17T18:14:46.609Z,83.40
2018-05-17T18:17:14.546Z,83.30
2018-05-17T18:19:43.725Z,85.20
2018-05-17T18:22:11.609Z,84.90
2018-05-17T18:24:39.854Z,84.20
2018-05-17T18:27:08.138Z,84.90
2018-05-17T18:29:36.256Z,85.90
2018-05-17T18:32:04.909Z,87.90
2018-05-17T18:34:34.017Z,88.00
2018-05-17T18:37:02.205Z,89.30
2018-05-17T18:39:30.508Z,90.20
2018-05-17T18:41:58.556Z,90.20
2018-05-17T18:44:26.034Z,90.70
2018-05-17T18:46:53.485Z,90.90
2018-05-17T18:49:20.955Z,91.30
2018-05-17T18:51:48.408Z,91.90
2018-05-17T18:54:16.333Z,92.40
2018-05-17T18:56:43.794Z,92.70
2018-05-17T18:59:11.260Z,93.40
2018-05-17T19:01:39.143Z,93.80
2018-05-17T19:04:06.600Z,94.60
2018-05-17T19:06:34.067Z,94.90
2018-05-17T19:09:01.530Z,95.30
2018-05-17T19:11:28.983Z,95.80
2018-05-17T19:13:56.456Z,96.30
2018-05-17T19:16:23.912Z,96.70
2018-05-17T19:18:51.394Z,97.40
2018-05-17T19:21:19.633Z,98.50
2018-05-17T19:23:47.114Z,98.50
2018-05-17T19:26:15.336Z,99.60
2018-05-17T19:28:43.396Z,99.50
2018-05-17T19:31:11.607Z,99.90
2018-05-17T19:33:39.071Z,99.90
2018-05-17T19:36:07.514Z,99.90
2018-05-17T19:38:34.927Z,99.90
2018-05-17T19:41:05.045Z,99.90
2018-05-17T19:43:32.496Z,99.90
2018-05-17T19:45:59.961Z,99.90
2018-05-17T19:48:28.402Z,99.90
2018-05-17T19:50:55.884Z,99.90
2018-05-17T19:53:23.364Z,99.90
2018-05-17T19:55:51.594Z,99.90
2018-05-17T19:58:19.072Z,99.90
2018-05-17T20:00:46.538Z,99.90
2018-05-17T20:03:13.992Z,99.90
2018-05-17T20:05:42.071Z,99.90
2018-05-17T20:08:10.424Z,99.90
2018-05-17T20:10:38.505Z,99.90
2018-05-17T20:13:06.391Z,99.90
2018-05-17T20:15:34.621Z,99.90
2018-05-17T20:18:02.848Z,99.90
2018-05-17T20:20:31.540Z,99.90
2018-05-17T20:22:59.788Z,99.90
2018-05-17T20:25:27.253Z,99.90
2018-05-17T20:27:54.701Z,99.90
2018-05-17T20:30:22.155Z,99.90
2018-05-17T20:32:49.617Z,99.90
2018-05-17T20:35:17.075Z,99.90
2018-05-17T20:37:44.532Z,99.90
2018-05-17T20:40:11.993Z,99.90
2018-05-17T20:42:40.100Z,99.90
2018-05-17T20:45:07.578Z,99.90
2018-05-17T20:47:35.031Z,99.90
2018-05-17T20:50:02.493Z,99.90
2018-05-17T20:52:29.965Z,99.90
2018-05-17T20:54:57.439Z,99.90
2018-05-17T20:57:24.948Z,99.90
2018-05-17T20:59:52.669Z,99.90
2018-05-17T21:02:20.120Z,99.90
2018-05-17T21:04:47.584Z,99.90
2018-05-17T21:07:15.095Z,99.90
2018-05-17T21:09:42.804Z,99.90
2018-05-17T21:12:10.277Z,99.90
2018-05-17T21:14:38.497Z,99.90
2018-05-17T21:17:05.951Z,99.90
2018-05-17T21:19:33.405Z,99.90
2018-05-17T21:22:00.870Z,99.90
2018-05-17T21:24:28.320Z,99.90
2018-05-17T21:26:56.730Z,99.90
2018-05-17T21:29:24.408Z,99.90
2018-05-17T21:31:52.371Z,99.90
2018-05-17T21:34:19.844Z,99.90
2018-05-17T21:36:48.183Z,99.90
2018-05-17T21:39:18.185Z,99.90
2018-05-17T21:41:45.649Z,99.90
2018-05-17T21:44:13.114Z,99.90
2018-05-17T21:46:40.570Z,99.90
2018-05-17T21:49:08.009Z,99.90
2018-05-17T21:51:35.462Z,99.90
2018-05-17T21:54:02.945Z,99.90
2018-05-17T21:56:30.401Z,99.90
2018-05-17T21:58:57.848Z,99.90
2018-05-17T22:01:26.064Z,99.90
2018-05-17T22:03:53.519Z,99.90
2018-05-17T22:06:20.967Z,99.90
2018-05-17T22:08:48.450Z,99.90
2018-05-17T22:11:15.982Z,99.90
2018-05-17T22:13:43.431Z,99.90
2018-05-17T22:16:10.898Z,99.90
2018-05-17T22:18:38.368Z,99.90
2018-05-17T22:21:05.904Z,99.90
2018-05-17T22:23:33.363Z,99.90
2018-05-17T22:26:00.840Z,99.90
2018-05-17T22:28:28.297Z,99.90
2018-05-17T22:30:55.756Z,99.90
2018-05-17T22:33:23.984Z,99.90
2018-05-17T22:35:51.538Z,99.90
2018-05-17T22:38:18.924Z,99.90
2018-05-17T22:40:46.390Z,99.90
2018-05-17T22:43:14.417Z,99.90
2018-05-17T22:45:43.803Z,99.90
2018-05-17T22:48:11.316Z,99.90
2018-05-17T22:50:39.577Z,99.90
2018-05-17T22:53:07.071Z,99.90
2018-05-17T22:55:35.335Z,99.90
2018-05-17T22:58:14.516Z,99.90
2018-05-17T23:00:42.526Z,99.90
2018-05-17T23:03:10.003Z,99.90
2018-05-17T23:05:37.473Z,99.90
2018-05-17T23:08:06.684Z,99.90
2018-05-17T23:10:34.156Z,99.90
2018-05-17T23:13:01.625Z,99.90
2018-05-17T23:15:29.083Z,99.90
2018-05-17T23:17:56.553Z,99.90
2018-05-17T23:20:24.020Z,99.90
2018-05-17T23:22:51.900Z,99.90
2018-05-17T23:25:19.419Z,99.90
2018-05-17T23:27:46.876Z,99.90
2018-05-17T23:30:14.950Z,99.90
2018-05-17T23:32:42.396Z,99.90
2018-05-17T23:35:13.297Z,99.90
2018-05-17T23:37:41.522Z,99.90
2018-05-17T23:43:11.260Z,99.90
2018-05-17T23:45:38.723Z,99.90
2018-05-17T23:48:06.184Z,99.90
2018-05-17T23:50:33.652Z,99.90
2018-05-17T23:53:01.112Z,99.90
2018-05-17T23:55:28.572Z,99.90
2018-05-17T23:57:56.019Z,99.90
